Time;durP1;ratioP1;P1;durP2;ratioP2;P2;SDS_P1;SDS_P2;PMS_P1;PMS_P2;Temp;Humidity;BMP_temperature;BMP_pressure;BME280_temperature;BME280_humidity;BME280_pressure;Samples;Min_cycle;Max_cycle;Signal;HPM_P1;HPM_P2
2022/03/02 00:02:37;;;;;;;19.67;12.27;;;2.80;83.70;;;;;;6239706;23;20187;-68
2022/03/02 00:05:24;;;;;;;18.53;12.70;;;2.90;83.70;;;;;;6240701;22;20747;-69
2022/03/02 00:08:09;;;;;;;17.48;12.40;;;3.10;83.60;;;;;;6243138;23;20798;-69
2022/03/02 00:10:55;;;;;;;17.25;11.48;;;3.00;84.60;;;;;;6241645;23;20195;-68
2022/03/02 00:13:40;;;;;;;15.63;12.20;;;3.10;84.70;;;;;;6241634;22;20171;-69
2022/03/02 00:16:27;;;;;;;19.90;12.65;;;3.20;84.80;;;;;;6243222;23;20844;-68
2022/03/02 00:19:14;;;;;;;17.87;11.67;;;3.10;84.70;;;;;;6242424;23;20394;-68
2022/03/02 00:22:00;;;;;;;14.23;10.77;;;3.10;83.90;;;;;;6241056;23;20373;-69
2022/03/02 00:24:50;;;;;;;18.60;12.43;;;3.20;84.30;;;;;;6242211;22;20905;-69
2022/03/02 00:27:36;;;;;;;19.17;12.23;;;3.20;83.90;;;;;;6242946;23;20717;-69
2022/03/02 00:30:23;;;;;;;17.20;11.50;;;3.30;84.20;;;;;;6241040;23;20951;-69
2022/03/02 00:33:09;;;;;;;18.27;11.53;;;3.20;83.80;;;;;;6240871;23;20378;-69
2022/03/02 00:35:56;;;;;;;15.60;11.20;;;3.20;84.00;;;;;;6241946;23;20382;-68
2022/03/02 00:38:42;;;;;;;14.17;10.40;;;3.20;84.00;;;;;;6240378;23;20924;-68
2022/03/02 00:41:28;;;;;;;17.30;10.80;;;3.10;84.00;;;;;;6239757;23;20354;-68
2022/03/02 00:44:14;;;;;;;17.58;11.70;;;2.90;84.50;;;;;;6241861;22;21111;-68
2022/03/02 00:47:00;;;;;;;19.00;10.73;;;3.00;84.60;;;;;;6241957;23;20206;-68
2022/03/02 00:49:46;;;;;;;15.57;10.97;;;2.90;85.00;;;;;;6242577;23;20864;-68
2022/03/02 00:52:34;;;;;;;17.42;11.43;;;2.80;85.10;;;;;;6241061;23;20382;-67
2022/03/02 00:55:19;;;;;;;14.00;10.97;;;2.80;84.50;;;;;;6242048;22;20535;-68
2022/03/02 00:58:06;;;;;;;14.32;9.82;;;2.60;85.30;;;;;;6242349;23;20375;-68
2022/03/02 01:00:51;;;;;;;13.63;10.20;;;2.50;86.00;;;;;;6238616;23;20462;-69
2022/03/02 01:03:37;;;;;;;13.90;10.30;;;2.50;86.00;;;;;;6242339;22;20452;-70
2022/03/02 01:06:23;;;;;;;17.50;10.73;;;2.50;86.50;;;;;;6242534;23;20193;-68
2022/03/02 01:09:10;;;;;;;17.83;10.60;;;2.40;85.20;;;;;;6241048;23;20170;-69
2022/03/02 01:11:56;;;;;;;14.55;9.95;;;2.40;84.80;;;;;;6240594;23;20378;-68
2022/03/02 01:14:42;;;;;;;21.48;11.30;;;2.30;85.60;;;;;;6241976;22;20254;-68
2022/03/02 01:17:27;;;;;;;14.73;11.57;;;2.10;85.70;;;;;;6242428;23;20513;-69
2022/03/02 01:20:13;;;;;;;16.58;11.00;;;2.10;85.90;;;;;;6240069;23;20171;-67
2022/03/02 01:22:59;;;;;;;14.30;11.03;;;2.10;86.60;;;;;;6242437;23;20247;-68
2022/03/02 01:25:46;;;;;;;16.17;10.95;;;2.00;86.30;;;;;;6241477;22;20460;-68
2022/03/02 01:28:32;;;;;;;12.40;10.05;;;2.00;86.50;;;;;;6242541;23;20191;-68
2022/03/02 01:31:18;;;;;;;16.75;10.60;;;2.00;87.10;;;;;;6239855;23;20247;-69
2022/03/02 01:34:03;;;;;;;17.48;11.88;;;1.90;88.10;;;;;;6242293;22;20568;-69
2022/03/02 01:36:49;;;;;;;14.20;10.68;;;1.90;87.70;;;;;;6242509;23;20248;-68
2022/03/02 01:39:35;;;;;;;15.00;11.25;;;1.80;88.00;;;;;;6238009;23;20171;-71
2022/03/02 01:42:22;;;;;;;17.02;11.63;;;1.90;87.90;;;;;;6240817;23;20167;-68
2022/03/02 01:45:09;;;;;;;14.35;11.38;;;1.80;88.30;;;;;;6241728;22;20197;-69
2022/03/02 01:47:54;;;;;;;16.70;11.57;;;1.80;87.50;;;;;;6244193;23;20186;-69
2022/03/02 01:50:40;;;;;;;18.08;10.88;;;1.80;87.40;;;;;;6240225;23;20410;-70
2022/03/02 01:53:26;;;;;;;21.23;12.90;;;1.70;87.90;;;;;;6243860;22;20241;-69
2022/03/02 01:56:12;;;;;;;17.30;11.75;;;1.60;88.70;;;;;;6244413;23;20294;-68
2022/03/02 01:58:59;;;;;;;15.90;11.45;;;1.60;87.80;;;;;;6243298;23;20253;-70
2022/03/02 02:01:45;;;;;;;13.87;10.67;;;1.60;87.80;;;;;;6243771;23;20249;-69
2022/03/02 02:04:31;;;;;;;19.42;12.50;;;1.60;87.90;;;;;;6242912;22;20455;-69
2022/03/02 02:07:17;;;;;;;15.48;11.70;;;1.70;87.90;;;;;;6242821;23;20289;-72
2022/03/02 02:10:05;;;;;;;16.80;11.07;;;1.70;87.60;;;;;;6241741;23;20170;-69
2022/03/02 02:12:51;;;;;;;19.08;12.90;;;1.50;88.00;;;;;;6243913;23;20378;-70
2022/03/02 02:15:38;;;;;;;15.90;11.77;;;1.50;88.00;;;;;;6243426;22;20202;-68
2022/03/02 02:18:23;;;;;;;17.83;11.20;;;1.50;88.10;;;;;;6243154;23;20206;-69
2022/03/02 02:21:11;;;;;;;16.27;9.98;;;1.40;88.40;;;;;;6242867;23;20379;-69
2022/03/02 02:23:57;;;;;;;17.13;10.93;;;1.50;88.60;;;;;;6241432;22;20219;-69
2022/03/02 02:26:42;;;;;;;16.67;11.32;;;1.40;88.10;;;;;;6243288;23;20433;-69
2022/03/02 02:29:30;;;;;;;14.20;10.30;;;1.20;88.90;;;;;;6240652;23;20195;-69
2022/03/02 02:32:16;;;;;;;14.05;9.95;;;1.20;89.70;;;;;;6243555;23;20376;-69
2022/03/02 02:35:02;;;;;;;19.57;11.40;;;1.30;90.00;;;;;;6243099;22;20696;-69
2022/03/02 02:37:49;;;;;;;18.00;10.57;;;1.20;90.00;;;;;;6242359;23;20905;-68
2022/03/02 02:40:37;;;;;;;12.20;10.52;;;1.30;88.50;;;;;;6241189;23;20545;-68
2022/03/02 02:43:26;;;;;;;12.87;9.30;;;1.30;87.60;;;;;;6243064;23;20569;-69
2022/03/02 02:46:12;;;;;;;14.25;10.15;;;1.30;88.20;;;;;;6243017;23;20428;-68
2022/03/02 02:48:57;;;;;;;13.43;9.15;;;1.30;87.90;;;;;;6240851;23;20566;-68
2022/03/02 02:51:43;;;;;;;10.85;9.05;;;1.20;88.00;;;;;;6242655;23;20265;-68
2022/03/02 02:54:30;;;;;;;13.77;9.30;;;1.10;89.20;;;;;;6243398;22;20900;-68
2022/03/02 02:57:16;;;;;;;15.88;10.75;;;1.10;89.10;;;;;;6243024;23;20166;-68
2022/03/02 03:00:01;;;;;;;15.37;10.40;;;1.10;88.30;;;;;;6241234;23;20625;-68
2022/03/02 03:02:48;;;;;;;13.38;9.43;;;1.10;89.40;;;;;;6242758;23;20919;-69
2022/03/02 03:05:35;;;;;;;13.45;10.00;;;1.10;88.90;;;;;;6242685;22;20286;-68
2022/03/02 03:08:20;;;;;;;14.02;9.48;;;1.10;89.30;;;;;;6241795;23;20766;-69
2022/03/02 03:11:07;;;;;;;13.82;10.07;;;1.00;89.20;;;;;;6243011;23;20169;-69
2022/03/02 03:13:53;;;;;;;18.55;10.23;;;1.00;89.30;;;;;;6241764;22;20217;-68
2022/03/02 03:16:39;;;;;;;13.70;10.48;;;0.90;89.00;;;;;;6242536;23;20658;-69
2022/03/02 03:19:25;;;;;;;16.38;10.27;;;1.00;89.90;;;;;;6240524;23;20166;-70
2022/03/02 03:22:10;;;;;;;15.63;10.68;;;1.10;90.00;;;;;;6243079;23;20670;-69
2022/03/02 03:24:56;;;;;;;11.32;8.65;;;1.20;89.70;;;;;;6243161;22;20245;-69
2022/03/02 03:27:44;;;;;;;13.10;10.07;;;1.30;88.70;;;;;;6243089;23;20190;-71
2022/03/02 03:30:30;;;;;;;14.65;10.25;;;1.30;88.90;;;;;;6241478;23;20171;-69
2022/03/02 03:33:15;;;;;;;15.68;9.95;;;1.20;89.50;;;;;;6242206;23;20673;-69
2022/03/02 03:36:02;;;;;;;12.88;9.55;;;1.20;89.70;;;;;;6243793;23;20252;-68
2022/03/02 03:38:48;;;;;;;13.52;8.82;;;1.10;90.10;;;;;;6239947;23;20691;-69
2022/03/02 03:41:33;;;;;;;14.35;8.85;;;1.10;90.30;;;;;;6242441;23;20173;-68
2022/03/02 03:44:20;;;;;;;12.30;10.13;;;1.00;90.40;;;;;;6241401;22;20202;-68
2022/03/02 03:47:07;;;;;;;12.87;9.37;;;0.90;91.00;;;;;;6243319;23;20186;-69
2022/03/02 03:49:52;;;;;;;13.68;10.30;;;0.80;91.50;;;;;;6242149;23;20721;-69
2022/03/02 03:52:38;;;;;;;12.65;9.75;;;0.80;92.10;;;;;;6243250;23;20167;-69
2022/03/02 03:55:24;;;;;;;15.10;9.50;;;0.90;91.80;;;;;;6239806;22;20202;-69
2022/03/02 03:58:09;;;;;;;14.20;10.15;;;0.80;92.10;;;;;;6240331;23;20247;-69
2022/03/02 04:00:57;;;;;;;13.73;10.37;;;0.80;92.00;;;;;;6242569;23;20175;-69
2022/03/02 04:03:43;;;;;;;16.02;11.45;;;0.80;91.90;;;;;;6242356;22;20516;-68
2022/03/02 04:06:28;;;;;;;14.70;10.45;;;0.90;91.90;;;;;;6241634;23;20239;-68
2022/03/02 04:09:14;;;;;;;18.92;11.85;;;0.90;92.00;;;;;;6240090;23;20213;-69
2022/03/02 04:12:00;;;;;;;21.13;11.20;;;0.90;92.00;;;;;;6242521;23;20235;-69
2022/03/02 04:14:46;;;;;;;11.97;9.70;;;0.90;92.00;;;;;;6242138;22;20598;-68
2022/03/02 04:17:34;;;;;;;14.32;10.60;;;1.10;92.30;;;;;;6240146;23;20397;-69
2022/03/02 04:20:19;;;;;;;14.20;10.02;;;1.00;91.80;;;;;;6241192;23;20166;-68
2022/03/02 04:23:08;;;;;;;16.27;10.20;;;1.10;92.10;;;;;;6241561;23;20500;-69
2022/03/02 04:25:54;;;;;;;18.90;10.35;;;1.10;92.00;;;;;;6242755;23;20189;-68
2022/03/02 04:28:40;;;;;;;12.90;9.45;;;1.10;92.20;;;;;;6239996;23;20191;-69
2022/03/02 04:31:25;;;;;;;15.70;10.50;;;1.20;92.10;;;;;;6241826;23;20855;-69
2022/03/02 04:34:12;;;;;;;14.02;10.00;;;1.30;91.90;;;;;;6242582;22;20253;-68
2022/03/02 04:36:58;;;;;;;16.00;10.07;;;1.40;91.80;;;;;;6240724;23;20164;-69
2022/03/02 04:39:44;;;;;;;14.00;9.95;;;1.50;91.60;;;;;;6242659;23;20502;-69
2022/03/02 04:42:29;;;;;;;12.57;9.82;;;1.50;91.50;;;;;;6242053;23;20677;-70
2022/03/02 04:45:15;;;;;;;12.20;9.32;;;1.40;91.70;;;;;;6242050;22;20724;-69
2022/03/02 04:48:01;;;;;;;14.43;9.52;;;1.50;91.50;;;;;;6240335;23;20650;-68
2022/03/02 04:50:49;;;;;;;14.18;10.52;;;1.50;91.50;;;;;;6242730;23;20250;-68
2022/03/02 04:53:35;;;;;;;11.23;9.00;;;1.50;91.70;;;;;;6241453;22;20190;-69
2022/03/02 04:56:20;;;;;;;13.98;9.40;;;1.60;91.50;;;;;;6242438;22;20688;-86
2022/03/02 04:59:07;;;;;;;15.05;9.73;;;1.60;91.50;;;;;;6241258;23;20167;-88
2022/03/02 05:01:53;;;;;;;14.25;9.23;;;1.40;91.80;;;;;;6243285;23;20169;-88
2022/03/02 05:04:39;;;;;;;12.88;9.75;;;1.30;92.10;;;;;;6242634;22;20210;-71
2022/03/02 05:07:25;;;;;;;11.20;8.82;;;1.30;92.00;;;;;;6209332;23;20206;-71
2022/03/02 05:10:13;;;;;;;15.25;10.15;;;1.30;92.30;;;;;;6212048;23;20303;-71
2022/03/02 05:13:01;;;;;;;16.25;10.25;;;1.20;92.30;;;;;;6212106;23;20230;-71
2022/03/02 05:15:47;;;;;;;13.60;10.15;;;1.30;92.50;;;;;;6212045;23;20207;-71
2022/03/02 05:18:33;;;;;;;12.55;10.23;;;1.30;92.10;;;;;;6208819;23;20502;-71
2022/03/02 05:21:18;;;;;;;11.63;9.07;;;1.40;92.20;;;;;;6212769;23;20520;-72
2022/03/02 05:24:06;;;;;;;16.60;10.00;;;1.50;92.00;;;;;;6213489;23;20237;-71
2022/03/02 05:26:52;;;;;;;13.57;9.05;;;1.50;91.70;;;;;;6212473;23;20462;-71
2022/03/02 05:29:38;;;;;;;14.35;9.77;;;1.40;92.10;;;;;;6212973;23;20233;-71
2022/03/02 05:32:24;;;;;;;13.88;9.55;;;1.20;92.30;;;;;;6213768;23;20553;-71
2022/03/02 05:35:11;;;;;;;15.45;9.65;;;1.10;92.60;;;;;;6213310;23;20205;-71
2022/03/02 05:37:56;;;;;;;15.05;10.18;;;1.30;92.70;;;;;;6211491;23;20242;-71
2022/03/02 05:40:43;;;;;;;15.50;9.70;;;1.20;92.70;;;;;;6213418;23;20172;-71
2022/03/02 05:43:29;;;;;;;16.15;10.82;;;1.20;92.60;;;;;;6213389;23;20250;-71
2022/03/02 05:46:15;;;;;;;15.50;9.48;;;1.20;93.00;;;;;;6211856;23;20217;-72
2022/03/02 05:49:00;;;;;;;16.00;9.95;;;1.30;92.90;;;;;;6212660;23;20192;-71
2022/03/02 05:51:46;;;;;;;21.15;16.73;;;1.40;93.10;;;;;;6213665;23;20646;-71
2022/03/02 05:54:32;;;;;;;14.20;10.98;;;1.50;93.00;;;;;;6212320;23;20230;-71
2022/03/02 05:57:19;;;;;;;14.55;9.85;;;1.60;92.80;;;;;;6211350;23;20247;-72
2022/03/02 06:00:06;;;;;;;20.08;11.10;;;1.70;92.80;;;;;;6213165;23;20214;-71
2022/03/02 06:02:52;;;;;;;14.55;10.20;;;1.80;92.60;;;;;;6213371;23;20236;-72
2022/03/02 06:05:38;;;;;;;16.42;10.60;;;1.70;92.60;;;;;;6212736;23;20211;-71
2022/03/02 06:08:24;;;;;;;17.70;9.73;;;1.70;92.80;;;;;;6212191;23;20658;-71
2022/03/02 06:11:10;;;;;;;12.93;9.55;;;1.60;92.90;;;;;;6213941;23;20213;-71
2022/03/02 06:13:57;;;;;;;14.43;10.25;;;1.60;92.90;;;;;;6212729;23;20184;-71
2022/03/02 06:16:43;;;;;;;20.58;11.15;;;1.60;92.80;;;;;;6210953;23;20678;-71
2022/03/02 06:19:29;;;;;;;21.48;12.07;;;1.60;93.00;;;;;;6212364;23;20163;-71
2022/03/02 06:22:17;;;;;;;34.63;13.65;;;1.50;92.90;;;;;;6213746;23;20167;-71
2022/03/02 06:25:03;;;;;;;17.15;11.52;;;1.40;93.70;;;;;;6212267;23;20642;-71
2022/03/02 06:27:49;;;;;;;25.30;11.75;;;1.30;93.80;;;;;;6211629;23;20188;-71
2022/03/02 06:30:36;;;;;;;23.67;11.77;;;1.40;94.10;;;;;;6212349;23;20167;-71
2022/03/02 06:33:22;;;;;;;18.17;11.15;;;1.60;94.10;;;;;;6212692;23;20171;-71
2022/03/02 06:36:08;;;;;;;17.30;11.57;;;1.60;94.20;;;;;;6210709;23;20205;-71
2022/03/02 06:38:53;;;;;;;14.55;10.60;;;1.60;94.30;;;;;;6211307;23;20170;-71
2022/03/02 06:41:52;;;;;;;13.60;10.20;;;1.70;93.90;;;;;;6212988;23;20173;-71
2022/03/02 06:44:45;;;;;;;19.95;10.25;;;1.80;93.70;;;;;;6212437;23;20172;-72
2022/03/02 06:47:38;;;;;;;15.07;11.53;;;1.80;93.50;;;;;;6211287;23;20291;-71
2022/03/02 06:50:26;;;;;;;18.73;9.37;;;1.70;93.90;;;;;;6212496;23;20829;-71
2022/03/02 06:53:14;;;;;;;11.93;9.50;;;1.70;93.90;;;;;;6212979;23;20451;-71
2022/03/02 06:56:04;;;;;;;24.10;10.20;;;1.80;94.30;;;;;;6210762;23;20266;-71
2022/03/02 06:58:52;;;;;;;17.48;9.75;;;1.80;93.90;;;;;;6212574;23;20630;-71
2022/03/02 07:01:41;;;;;;;11.45;9.88;;;1.90;93.90;;;;;;6212997;23;20508;-71
2022/03/02 07:04:28;;;;;;;15.68;10.15;;;2.00;93.90;;;;;;6211865;23;20654;-71
2022/03/02 07:07:15;;;;;;;14.18;9.38;;;2.00;94.00;;;;;;6212346;23;20166;-72
2022/03/02 07:10:00;;;;;;;14.93;9.63;;;2.10;94.20;;;;;;6212473;23;20719;-72
2022/03/02 07:12:46;;;;;;;12.93;9.75;;;2.10;94.50;;;;;;6212339;23;20370;-71
2022/03/02 07:15:32;;;;;;;14.95;9.52;;;2.30;94.00;;;;;;6209648;23;20276;-71
2022/03/02 07:18:18;;;;;;;17.10;11.30;;;2.40;93.70;;;;;;6213230;23;20219;-71
2022/03/02 07:21:11;;;;;;;17.05;11.05;;;2.50;93.20;;;;;;6213050;23;20173;-71
2022/03/02 07:24:05;;;;;;;16.52;12.40;;;2.50;93.20;;;;;;6211868;23;20320;-70
2022/03/02 07:26:56;;;;;;;14.45;11.10;;;2.60;92.90;;;;;;6210534;23;20288;-71
2022/03/02 07:29:42;;;;;;;25.63;12.20;;;2.60;93.00;;;;;;6212241;23;20247;-70
2022/03/02 07:32:32;;;;;;;15.60;12.52;;;2.80;92.60;;;;;;6212372;23;20430;-70
2022/03/02 07:35:19;;;;;;;17.20;11.77;;;2.80;92.40;;;;;;6207877;23;20203;-71
2022/03/02 07:38:07;;;;;;;19.27;11.93;;;2.90;91.90;;;;;;6214668;23;20247;-71
2022/03/02 07:40:54;;;;;;;16.00;12.02;;;2.90;91.20;;;;;;6212602;23;20408;-71
2022/03/02 07:43:40;;;;;;;19.93;11.90;;;2.90;91.00;;;;;;6211573;23;20180;-71
2022/03/02 07:46:28;;;;;;;19.60;11.55;;;2.90;90.80;;;;;;6208725;23;20549;-71
2022/03/02 07:49:14;;;;;;;17.55;12.20;;;2.90;91.90;;;;;;6211448;23;20198;-71
2022/03/02 07:52:05;;;;;;;17.53;11.77;;;3.00;91.90;;;;;;6210823;23;20175;-71
2022/03/02 07:54:54;;;;;;;14.83;11.53;;;3.20;91.40;;;;;;6208166;23;20454;-72
2022/03/02 07:57:40;;;;;;;15.83;11.83;;;3.30;90.90;;;;;;6210017;23;20855;-72
2022/03/02 08:00:28;;;;;;;19.23;11.80;;;3.30;90.80;;;;;;6208988;23;20430;-71
2022/03/02 08:03:14;;;;;;;21.30;11.30;;;3.40;90.40;;;;;;6210130;23;20785;-73
2022/03/02 08:06:00;;;;;;;22.50;13.17;;;3.50;90.30;;;;;;6209527;23;20499;-71
2022/03/02 08:08:47;;;;;;;19.40;11.70;;;3.60;89.30;;;;;;6210944;23;20431;-70
2022/03/02 08:11:38;;;;;;;17.17;11.70;;;3.70;87.90;;;;;;6211493;23;20388;-72
2022/03/02 08:14:25;;;;;;;16.47;12.10;;;3.70;86.20;;;;;;6207447;23;20386;-72
2022/03/02 08:17:11;;;;;;;19.67;11.93;;;3.80;84.70;;;;;;6210116;23;20357;-71
2022/03/02 08:19:57;;;;;;;17.80;12.13;;;3.80;84.10;;;;;;6209875;23;20700;-71
2022/03/02 08:22:46;;;;;;;19.57;12.13;;;3.90;84.80;;;;;;6209875;23;20390;-72
2022/03/02 08:25:34;;;;;;;18.30;12.37;;;3.90;85.30;;;;;;6205614;23;20430;-73
2022/03/02 08:28:23;;;;;;;19.70;11.48;;;4.00;85.20;;;;;;6212993;23;20510;-72
2022/03/02 08:31:09;;;;;;;21.97;13.83;;;4.10;84.40;;;;;;6213340;23;20561;-71
2022/03/02 08:33:55;;;;;;;20.47;13.07;;;4.20;83.50;;;;;;6210000;23;20399;-71
2022/03/02 08:36:44;;;;;;;17.63;11.70;;;4.30;83.30;;;;;;6211474;23;20415;-72
2022/03/02 08:39:30;;;;;;;19.10;12.00;;;4.20;81.80;;;;;;6212530;23;20399;-71
2022/03/02 08:42:16;;;;;;;19.90;11.80;;;4.20;81.70;;;;;;6213224;23;20430;-71
2022/03/02 08:45:04;;;;;;;18.33;10.65;;;4.30;82.70;;;;;;6210685;23;20870;-71
2022/03/02 08:47:50;;;;;;;17.13;10.73;;;4.30;81.30;;;;;;6211584;23;20192;-71
2022/03/02 08:50:36;;;;;;;22.30;14.10;;;4.40;81.30;;;;;;6212247;23;20372;-72
2022/03/02 08:53:22;;;;;;;21.37;13.93;;;4.50;80.40;;;;;;6210533;23;20391;-72
2022/03/02 08:56:08;;;;;;;29.33;14.20;;;4.60;78.70;;;;;;6212822;23;20826;-71
2022/03/02 08:58:56;;;;;;;37.40;16.23;;;4.60;78.90;;;;;;6213509;23;20454;-70
2022/03/02 09:01:49;;;;;;;27.23;16.87;;;4.80;78.90;;;;;;6214772;23;20870;-71
2022/03/02 09:04:36;;;;;;;30.10;18.03;;;4.80;78.40;;;;;;6212151;23;20411;-70
2022/03/02 09:07:23;;;;;;;33.90;17.97;;;4.90;76.80;;;;;;6214005;23;20486;-71
2022/03/02 09:10:10;;;;;;;27.67;15.77;;;5.00;75.40;;;;;;6212461;23;20514;-70
2022/03/02 09:12:56;;;;;;;23.00;14.47;;;5.10;75.20;;;;;;6212739;23;20376;-71
2022/03/02 09:15:42;;;;;;;26.23;13.77;;;5.20;76.10;;;;;;6211817;23;20588;-71
2022/03/02 09:18:29;;;;;;;17.50;12.73;;;5.20;77.50;;;;;;6214317;23;20384;-72
2022/03/02 09:21:16;;;;;;;21.10;12.57;;;5.30;76.00;;;;;;6212704;23;20725;-71
2022/03/02 09:24:02;;;;;;;28.67;13.10;;;5.40;75.30;;;;;;6210769;23;20380;-71
2022/03/02 09:26:48;;;;;;;22.73;13.10;;;5.40;76.10;;;;;;6214760;23;20540;-71
2022/03/02 09:29:34;;;;;;;23.67;14.50;;;5.50;74.70;;;;;;6215090;23;20508;-71
2022/03/02 09:32:22;;;;;;;17.50;12.17;;;5.60;73.60;;;;;;6214257;23;20388;-71
2022/03/02 09:35:13;;;;;;;18.63;11.90;;;5.60;71.20;;;;;;6213055;23;20482;-71
2022/03/02 09:37:59;;;;;;;21.40;13.43;;;5.70;71.80;;;;;;6214963;23;20379;-71
2022/03/02 09:40:49;;;;;;;18.73;11.53;;;5.80;71.80;;;;;;6215003;23;20371;-72
2022/03/02 09:43:37;;;;;;;17.53;12.97;;;5.80;70.40;;;;;;6208639;23;20350;-72
2022/03/02 09:46:33;;;;;;;17.67;12.33;;;5.80;70.50;;;;;;6211102;23;20428;-72
2022/03/02 09:49:22;;;;;;;19.40;12.43;;;5.80;69.70;;;;;;6210811;23;20763;-71
2022/03/02 09:52:10;;;;;;;17.63;11.03;;;5.90;69.50;;;;;;6212068;23;20427;-73
2022/03/02 09:54:58;;;;;;;14.13;10.70;;;5.90;69.00;;;;;;6209131;23;20909;-71
2022/03/02 09:57:46;;;;;;;15.27;11.53;;;5.90;67.90;;;;;;6210706;23;20399;-72
2022/03/02 10:00:32;;;;;;;18.90;10.60;;;5.90;66.20;;;;;;6213362;23;20392;-71
2022/03/02 10:03:20;;;;;;;17.80;10.90;;;6.00;66.40;;;;;;6210568;23;20468;-71
2022/03/02 10:06:07;;;;;;;15.40;10.30;;;6.00;66.70;;;;;;6210035;23;20512;-72
2022/03/02 10:08:55;;;;;;;20.73;11.37;;;6.00;68.40;;;;;;6213220;23;20453;-71
2022/03/02 10:11:42;;;;;;;19.40;11.30;;;6.10;69.10;;;;;;6210333;23;20860;-72
2022/03/02 10:14:28;;;;;;;27.00;11.53;;;6.10;66.80;;;;;;6211954;23;20375;-72
2022/03/02 10:17:21;;;;;;;16.73;11.10;;;6.20;65.70;;;;;;6212160;23;20382;-72
2022/03/02 10:20:08;;;;;;;20.13;11.27;;;6.20;65.00;;;;;;6212843;23;20375;-71
2022/03/02 10:23:18;;;;;;;15.27;11.23;;;6.20;65.20;;;;;;6210115;23;20427;-71
2022/03/02 10:26:11;;;;;;;14.23;10.87;;;6.30;65.80;;;;;;6213627;23;20444;-71
2022/03/02 10:29:00;;;;;;;14.13;10.13;;;6.30;63.90;;;;;;6212631;23;20527;-72
2022/03/02 10:31:53;;;;;;;16.57;11.27;;;6.40;59.90;;;;;;6212444;23;20980;-72
2022/03/02 10:34:39;;;;;;;15.13;10.43;;;6.50;57.80;;;;;;6213065;23;20376;-71
2022/03/02 10:37:31;;;;;;;14.50;9.80;;;6.50;55.40;;;;;;6213960;23;20431;-71
2022/03/02 10:40:24;;;;;;;18.53;11.90;;;6.50;54.40;;;;;;6212759;23;20515;-73
2022/03/02 10:43:16;;;;;;;15.30;10.50;;;6.50;54.90;;;;;;6211007;23;20385;-71
2022/03/02 10:46:04;;;;;;;14.70;10.27;;;6.50;54.80;;;;;;6212550;23;20431;-72
2022/03/02 10:49:02;;;;;;;16.97;10.70;;;6.50;56.90;;;;;;6213238;23;20943;-71
2022/03/02 10:51:48;;;;;;;17.33;12.50;;;6.60;57.20;;;;;;6211765;23;20417;-72
2022/03/02 10:54:36;;;;;;;16.87;12.20;;;6.60;55.50;;;;;;6212521;23;20478;-72
2022/03/02 10:57:25;;;;;;;16.97;11.20;;;6.70;53.70;;;;;;6214224;23;20717;-71
2022/03/02 11:00:15;;;;;;;18.20;10.50;;;6.70;53.70;;;;;;6212509;23;20867;-72
2022/03/02 11:03:00;;;;;;;21.00;11.13;;;6.80;53.80;;;;;;6210549;23;20674;-71
2022/03/02 11:05:46;;;;;;;17.07;11.03;;;6.80;53.20;;;;;;6212407;23;20806;-72
2022/03/02 11:08:34;;;;;;;18.20;11.30;;;6.90;53.30;;;;;;6213528;23;20708;-71
2022/03/02 11:11:20;;;;;;;20.70;13.60;;;6.90;53.90;;;;;;6211091;23;20383;-71
2022/03/02 11:14:08;;;;;;;19.23;12.37;;;7.00;54.00;;;;;;6211787;23;20397;-71
2022/03/02 11:17:14;;;;;;;19.13;12.80;;;7.10;52.20;;;;;;6211859;23;20398;-71
2022/03/02 11:20:05;;;;;;;19.80;12.30;;;7.20;50.80;;;;;;6211637;23;20368;-72
2022/03/02 11:22:57;;;;;;;17.87;11.40;;;7.20;51.20;;;;;;6210257;23;20837;-71
2022/03/02 11:25:45;;;;;;;14.43;10.43;;;7.20;49.80;;;;;;6212203;23;20404;-72
2022/03/02 11:28:31;;;;;;;15.10;11.37;;;7.20;50.40;;;;;;6213079;23;20684;-71
2022/03/02 11:31:23;;;;;;;13.80;10.60;;;7.20;48.30;;;;;;6209648;23;20343;-72
2022/03/02 11:34:12;;;;;;;14.10;10.57;;;7.20;49.60;;;;;;6211217;23;20713;-71
2022/03/02 11:37:00;;;;;;;16.77;10.23;;;7.20;47.70;;;;;;6211287;23;20539;-71
2022/03/02 11:39:48;;;;;;;18.83;10.77;;;7.20;47.70;;;;;;6211851;23;20366;-72
2022/03/02 11:42:37;;;;;;;17.83;11.00;;;7.30;48.00;;;;;;6210039;23;20347;-71
2022/03/02 11:45:26;;;;;;;18.60;12.17;;;7.30;48.60;;;;;;6211480;23;20931;-72
2022/03/02 11:48:13;;;;;;;16.77;11.50;;;7.40;46.70;;;;;;6211925;23;20499;-71
2022/03/02 11:51:05;;;;;;;20.40;12.13;;;7.40;46.90;;;;;;6209977;23;20475;-71
2022/03/02 11:53:54;;;;;;;19.43;12.10;;;7.40;45.70;;;;;;6212293;23;20455;-72
2022/03/02 11:56:39;;;;;;;16.30;11.20;;;7.40;46.90;;;;;;6213588;23;20907;-71
2022/03/02 11:59:30;;;;;;;14.73;10.30;;;7.50;46.60;;;;;;6212404;23;20732;-71
2022/03/02 12:02:18;;;;;;;12.93;10.23;;;7.50;47.20;;;;;;6209405;23;20467;-72
2022/03/02 12:05:06;;;;;;;11.97;9.93;;;7.50;45.10;;;;;;6211446;23;20495;-71
2022/03/02 12:08:03;;;;;;;19.23;10.00;;;7.50;45.40;;;;;;6213016;23;20834;-71
2022/03/02 12:10:54;;;;;;;16.13;9.70;;;7.60;45.30;;;;;;6208535;23;20443;-70
2022/03/02 13:43:37;;;;;;;13.60;8.13;;;11.30;34.10;;;;;;6233501;22;20525;-68
2022/03/02 13:46:28;;;;;;;16.90;8.17;;;11.70;32.50;;;;;;6243529;23;20376;-71
2022/03/02 13:49:13;;;;;;;13.90;7.90;;;12.10;31.30;;;;;;6240620;23;20375;-70
2022/03/02 13:51:59;;;;;;;15.47;9.20;;;12.30;30.50;;;;;;6242037;23;20350;-72
2022/03/02 13:54:46;;;;;;;156.50;47.93;;;12.20;29.50;;;;;;6239115;22;20410;-72
2022/03/02 13:57:33;;;;;;;21.10;11.67;;;12.20;28.80;;;;;;6245087;23;20446;-73
2022/03/02 14:00:30;;;;;;;12.13;9.13;;;12.50;29.20;;;;;;6242595;23;20389;-73
2022/03/02 14:03:31;;;;;;;13.07;8.40;;;12.80;28.10;;;;;;6244385;22;20445;-73
2022/03/02 14:06:18;;;;;;;15.40;9.00;;;12.90;28.40;;;;;;6242840;23;20434;-73
2022/03/02 14:09:05;;;;;;;10.40;7.57;;;13.00;28.60;;;;;;6238466;23;20896;-73
2022/03/02 14:11:55;;;;;;;11.70;8.17;;;13.20;28.90;;;;;;6244786;23;20351;-73
2022/03/02 14:14:40;;;;;;;10.57;9.07;;;13.40;27.90;;;;;;6242437;22;20412;-73
2022/03/02 14:17:28;;;;;;;13.63;8.97;;;13.40;27.00;;;;;;6241817;23;20352;-72
2022/03/02 14:20:15;;;;;;;12.93;8.53;;;13.60;27.30;;;;;;6240890;23;20463;-72
2022/03/02 14:23:02;;;;;;;10.10;7.33;;;13.70;26.40;;;;;;6242189;22;20421;-73
2022/03/02 14:25:54;;;;;;;13.17;7.90;;;13.80;25.50;;;;;;6243380;23;21030;-73
2022/03/02 14:28:41;;;;;;;11.87;7.67;;;14.00;26.90;;;;;;6240796;23;20829;-72
2022/03/02 14:31:27;;;;;;;17.57;8.97;;;14.00;27.10;;;;;;6242495;23;20398;-72
2022/03/02 14:34:13;;;;;;;12.67;8.53;;;14.00;26.90;;;;;;6240830;22;20390;-72
2022/03/02 14:37:10;;;;;;;11.60;7.90;;;13.90;26.40;;;;;;6240198;23;20441;-73
2022/03/02 14:40:01;;;;;;;10.87;8.30;;;13.90;26.60;;;;;;6239459;23;20419;-72
2022/03/02 14:42:52;;;;;;;10.73;8.60;;;13.90;27.00;;;;;;6240113;22;20378;-73
2022/03/02 14:45:39;;;;;;;11.83;7.73;;;13.80;26.90;;;;;;6241503;23;20875;-73
2022/03/02 14:48:27;;;;;;;11.27;8.00;;;13.30;27.20;;;;;;6240426;23;20854;-72
2022/03/02 14:51:14;;;;;;;14.37;8.50;;;12.80;27.80;;;;;;6240575;23;20394;-72
2022/03/02 14:54:00;;;;;;;13.00;9.43;;;12.60;28.10;;;;;;6240597;22;20915;-72
2022/03/02 14:56:46;;;;;;;11.93;7.97;;;12.60;28.30;;;;;;6242098;23;20384;-73
2022/03/02 14:59:31;;;;;;;11.30;8.00;;;12.60;28.40;;;;;;6239364;23;20423;-73
2022/03/02 15:02:17;;;;;;;10.43;7.97;;;12.20;28.60;;;;;;6241635;23;20381;-72
2022/03/02 15:05:03;;;;;;;12.93;7.63;;;11.90;28.90;;;;;;6239142;22;20453;-73
2022/03/02 15:07:50;;;;;;;13.90;8.50;;;11.50;29.70;;;;;;6241582;23;20491;-73
2022/03/02 15:10:36;;;;;;;10.40;7.90;;;11.60;29.70;;;;;;6240628;23;20422;-73
2022/03/02 15:16:37;;;;;;;19.13;9.17;;;12.60;28.50;;;;;;6240334;23;20674;-72
2022/03/02 15:19:26;;;;;;;9.60;8.27;;;13.70;27.20;;;;;;6238774;23;20385;-73
2022/03/02 15:22:14;;;;;;;12.20;7.90;;;14.70;25.60;;;;;;6240990;23;20369;-73
2022/03/02 15:25:01;;;;;;;14.20;8.03;;;15.90;23.80;;;;;;6240768;22;20414;-73
2022/03/02 15:27:58;;;;;;;13.80;8.30;;;16.80;23.20;;;;;;6241307;23;20901;-73
2022/03/02 15:30:43;;;;;;;9.77;7.20;;;18.40;21.40;;;;;;6242184;23;20421;-73
2022/03/02 15:33:30;;;;;;;12.17;8.30;;;19.20;20.50;;;;;;6242215;22;20456;-73
2022/03/02 15:36:16;;;;;;;10.50;8.10;;;18.80;19.60;;;;;;6240354;23;20412;-73
2022/03/02 15:39:02;;;;;;;9.70;7.60;;;18.40;20.10;;;;;;6238403;23;20701;-70
2022/03/02 15:41:58;;;;;;;9.23;7.57;;;17.80;20.80;;;;;;6241101;23;20796;-73
2022/03/02 15:45:00;;;;;;;11.50;7.70;;;16.60;22.20;;;;;;6239801;22;20405;-73
2022/03/02 15:47:51;;;;;;;8.90;6.40;;;15.40;22.60;;;;;;6239791;23;20898;-73
2022/03/02 15:50:39;;;;;;;9.30;7.57;;;14.10;23.70;;;;;;6240373;23;20532;-73
2022/03/02 15:53:25;;;;;;;13.70;7.83;;;13.30;24.20;;;;;;6241583;22;20734;-72
2022/03/02 15:56:17;;;;;;;10.97;8.00;;;12.60;24.90;;;;;;6240398;23;20434;-72